New Market, Indiana
Current Conditions -  °F | °C
As of 8:55 PM on Saturday 25 Oct 2014 (Local Time) from K4I7 Reporting Station
Clear Clear  
Wind Chill: 64°   Ceiling: Unl
Heat Index: 64°   Visibility: 10mi
Dew Point: 46°   Wind: 3mph
Humidity: 52%   Direction: 270°W
Pressure: 29.95"   Gusts: NA
Location:  39.95°N, 86.92°W
Report Text: K4I7 260055Z AUTO 27003KT 10SM CLR 18/08 A2995 RMK AO2
Loading
Personal Weather Stations






























Interactive Weather Map
Tropical Storm Tracking
New forecast layout! Learn more

10-Day Weather Forecast

Advertisements
Track Severe Weather on mobile